Time;durP1;ratioP1;P1;durP2;ratioP2;P2;SDS_P1;SDS_P2;PMS_P1;PMS_P2;Temp;Humidity;BMP_temperature;BMP_pressure;BME280_temperature;BME280_humidity;BME280_pressure;Samples;Min_cycle;Max_cycle;Signal;HPM_P1;HPM_P2
2023/03/23 00:00:31;;;;;;;7.03;1.70;;;;;;;6.89;81.17;98018.44;4981731;28;20043;-46
2023/03/23 00:02:56;;;;;;;14.85;2.40;;;;;;;6.92;81.15;98022.38;4975896;28;20105;-48
2023/03/23 00:05:22;;;;;;;5.80;1.40;;;;;;;6.94;81.11;98020.03;4982682;28;20042;-43
2023/03/23 00:07:52;;;;;;;8.55;1.20;;;;;;;6.98;81.20;98015.34;4982376;28;20050;-46
2023/03/23 00:10:17;;;;;;;17.23;1.90;;;;;;;7.03;81.32;98034.22;4981641;28;20132;-42
2023/03/23 00:12:44;;;;;;;10.95;1.92;;;;;;;7.06;81.28;98028.72;4970834;28;20125;-47
2023/03/23 00:15:12;;;;;;;10.82;1.70;;;;;;;7.10;80.99;98031.47;4984068;28;20037;-43
2023/03/23 00:17:40;;;;;;;7.70;2.83;;;;;;;7.16;80.93;98038.19;4984510;28;20042;-50
2023/03/23 00:20:06;;;;;;;4.85;1.33;;;;;;;7.18;80.78;98046.84;4973144;28;20038;-43
2023/03/23 00:22:37;;;;;;;14.55;2.80;;;;;;;7.21;80.92;98046.06;4968907;28;20042;-48
2023/03/23 00:25:04;;;;;;;12.88;1.75;;;;;;;7.25;80.72;98042.13;4986629;28;20380;-42
2023/03/23 00:27:30;;;;;;;7.45;1.52;;;;;;;7.30;80.87;98049.25;4982829;28;20039;-42
2023/03/23 00:29:56;;;;;;;6.22;1.80;;;;;;;7.33;80.71;98040.22;4977992;28;20038;-42
2023/03/23 00:32:27;;;;;;;12.48;1.80;;;;;;;7.34;80.74;98028.81;4986330;28;20057;-42
2023/03/23 00:34:53;;;;;;;8.50;1.23;;;;;;;7.35;80.85;98024.09;4991511;28;20050;-43
2023/03/23 00:37:19;;;;;;;6.13;1.70;;;;;;;7.33;80.82;98023.69;4983930;28;20050;-43
2023/03/23 00:39:46;;;;;;;17.38;2.92;;;;;;;7.33;80.60;98013.47;4984317;28;20042;-48
2023/03/23 00:42:16;;;;;;;8.13;3.83;;;;;;;7.32;80.93;98019.38;4982011;28;20043;-43
2023/03/23 00:44:43;;;;;;;18.17;3.42;;;;;;;7.31;80.83;98015.03;4971114;28;20050;-42
2023/03/23 00:47:11;;;;;;;6.78;1.40;;;;;;;7.32;80.81;98016.63;4983384;28;20085;-43
2023/03/23 00:49:37;;;;;;;8.95;2.53;;;;;;;7.31;80.76;98015.03;4969091;28;20057;-42
2023/03/23 00:52:04;;;;;;;8.95;1.80;;;;;;;7.31;80.83;98001.28;4976629;28;20042;-45
2023/03/23 00:54:30;;;;;;;16.63;1.52;;;;;;;7.32;80.59;98024.88;4987378;28;20397;-43
2023/03/23 00:56:56;;;;;;;9.63;1.80;;;;;;;7.34;80.78;98033.53;4973169;28;20049;-44
2023/03/23 00:59:22;;;;;;;11.23;2.17;;;;;;;7.37;80.76;98032.75;4973199;28;20534;-44
2023/03/23 01:01:48;;;;;;;9.48;2.03;;;;;;;7.39;80.70;98030.38;4990710;28;20077;-43
2023/03/23 01:04:15;;;;;;;12.52;2.50;;;;;;;7.40;80.72;98040.22;4990895;28;20054;-44
2023/03/23 01:06:43;;;;;;;8.60;2.03;;;;;;;7.43;80.69;98033.94;4988980;28;20408;-43
2023/03/23 01:09:16;;;;;;;15.15;4.43;;;;;;;7.44;80.81;98032.75;4985339;28;20061;-51
2023/03/23 01:11:46;;;;;;;12.32;1.92;;;;;;;7.46;80.71;98024.13;4983558;28;20105;-43
2023/03/23 01:14:13;;;;;;;11.18;2.75;;;;;;;7.49;80.76;98037.91;4986004;28;20045;-49
2023/03/23 01:16:39;;;;;;;8.77;2.05;;;;;;;7.49;80.82;98035.16;4984968;28;20492;-43
2023/03/23 01:19:04;;;;;;;10.35;2.60;;;;;;;7.50;80.67;98039.47;4986768;28;20093;-43
2023/03/23 01:21:30;;;;;;;10.30;1.90;;;;;;;7.52;80.67;98039.09;4973154;28;20498;-42
2023/03/23 01:24:06;;;;;;;10.93;2.58;;;;;;;7.52;80.90;98047.34;4981853;28;20131;-43
2023/03/23 01:26:31;;;;;;;13.60;2.22;;;;;;;7.53;81.05;98043.38;4986005;28;20061;-43
2023/03/23 01:28:57;;;;;;;13.60;2.35;;;;;;;7.53;80.81;98057.94;4954318;28;20050;-42
2023/03/23 01:31:24;;;;;;;13.52;1.83;;;;;;;7.53;81.24;98046.94;4969704;28;20044;-43
2023/03/23 01:33:51;;;;;;;16.25;2.83;;;;;;;7.54;81.24;98042.22;4984962;28;20038;-42
2023/03/23 01:36:20;;;;;;;13.43;3.25;;;;;;;7.53;81.32;98043.38;4984236;28;20054;-44
2023/03/23 01:38:47;;;;;;;12.20;1.92;;;;;;;7.53;81.59;98054.41;4988072;28;20492;-43
2023/03/23 01:41:14;;;;;;;13.00;2.70;;;;;;;7.49;81.69;98051.66;4985251;28;20753;-43
2023/03/23 01:44:01;;;;;;;7.38;1.00;;;;;;;7.44;81.80;98054.78;4988576;28;20050;-44
2023/03/23 01:46:29;;;;;;;3.75;1.13;;;;;;;7.39;82.06;98051.63;4985580;28;20044;-43
2023/03/23 01:48:57;;;;;;;7.38;1.38;;;;;;;7.33;82.07;98059.47;4982459;28;20053;-43
2023/03/23 01:51:26;;;;;;;3.20;0.80;;;;;;;7.27;82.27;98058.28;4986958;28;20457;-50
2023/03/23 01:53:59;;;;;;;6.40;1.10;;;;;;;7.22;82.81;98053.16;4983554;28;20057;-42
2023/03/23 01:56:32;;;;;;;4.10;0.82;;;;;;;7.17;82.61;98056.28;4990116;28;20070;-42
2023/03/23 01:58:58;;;;;;;6.90;1.00;;;;;;;7.10;82.74;98042.47;4978346;28;20117;-43
2023/03/23 02:01:24;;;;;;;4.25;0.77;;;;;;;7.05;83.11;98045.59;4954221;28;20055;-43
2023/03/23 02:03:52;;;;;;;2.95;1.30;;;;;;;6.99;83.01;98030.69;4986746;28;20602;-43
2023/03/23 02:06:18;;;;;;;3.70;0.50;;;;;;;6.95;83.05;98025.16;4998869;28;20121;-43
2023/03/23 02:08:44;;;;;;;6.75;1.40;;;;;;;6.92;83.52;98017.66;4975670;28;20411;-42
2023/03/23 02:11:19;;;;;;;8.02;0.60;;;;;;;6.90;83.74;98025.53;4989279;28;20038;-43
2023/03/23 02:13:46;;;;;;;4.18;0.60;;;;;;;6.88;83.77;98032.59;4984679;28;20053;-43
2023/03/23 02:16:27;;;;;;;10.88;1.40;;;;;;;6.85;84.05;98030.59;4969286;28;20050;-42
2023/03/23 02:19:15;;;;;;;4.13;0.93;;;;;;;6.86;84.38;98029.44;4982075;28;20097;-44
2023/03/23 02:22:12;;;;;;;5.55;1.15;;;;;;;6.84;84.53;98020.78;4967154;28;20458;-43
2023/03/23 02:25:12;;;;;;;6.35;1.25;;;;;;;6.83;84.85;98002.72;4981600;28;20042;-44
2023/03/23 02:27:58;;;;;;;7.85;1.95;;;;;;;6.82;84.65;97990.13;4983357;28;20453;-43
2023/03/23 02:30:37;;;;;;;9.02;2.03;;;;;;;6.80;84.75;97998.78;4959921;28;20414;-43
2023/03/23 02:33:08;;;;;;;6.85;1.80;;;;;;;6.77;85.20;98010.53;4959313;28;20049;-44
2023/03/23 02:36:06;;;;;;;5.63;2.03;;;;;;;6.76;85.48;98003.47;4983211;28;20468;-44
2023/03/23 02:38:42;;;;;;;14.43;2.20;;;;;;;6.78;85.52;98005.84;4972330;28;20046;-48
2023/03/23 02:41:10;;;;;;;13.38;2.10;;;;;;;6.79;85.74;98004.66;4984951;28;20490;-43
2023/03/23 02:43:42;;;;;;;7.10;2.17;;;;;;;6.81;85.63;97999.53;4986956;28;20050;-45
2023/03/23 02:46:10;;;;;;;14.93;1.83;;;;;;;6.82;85.94;98001.91;4984907;28;20122;-43
2023/03/23 02:48:38;;;;;;;14.02;3.30;;;;;;;6.84;86.04;98004.28;4987741;28;20059;-43
2023/03/23 02:51:05;;;;;;;12.68;2.83;;;;;;;6.85;86.34;98003.09;4989149;28;20480;-44
2023/03/23 02:53:34;;;;;;;11.35;3.42;;;;;;;6.87;86.51;97992.50;4988594;28;20038;-43
2023/03/23 02:56:04;;;;;;;12.32;1.67;;;;;;;6.88;86.61;97994.88;4989540;28;20202;-43
2023/03/23 02:58:30;;;;;;;7.88;1.73;;;;;;;6.90;86.41;98003.53;4984502;28;20046;-47
2023/03/23 03:00:58;;;;;;;6.82;1.55;;;;;;;6.91;86.69;97999.56;5034458;22;20487;-44
2023/03/23 03:03:29;;;;;;;6.43;2.08;;;;;;;6.95;86.99;97994.09;5008255;28;20495;-43
2023/03/23 03:06:07;;;;;;;7.85;1.80;;;;;;;6.97;87.03;97995.28;5008515;28;20046;-43
2023/03/23 03:08:36;;;;;;;9.52;1.88;;;;;;;6.99;87.01;97992.16;5008325;28;20034;-50
2023/03/23 03:11:17;;;;;;;11.25;1.77;;;;;;;7.02;87.27;97996.88;5008624;28;20491;-44
2023/03/23 03:13:52;;;;;;;14.65;1.73;;;;;;;7.04;87.46;97989.78;5009249;28;20081;-44
2023/03/23 03:16:31;;;;;;;8.98;2.20;;;;;;;7.05;87.64;97993.34;4991349;28;20046;-43
2023/03/23 03:19:03;;;;;;;6.70;2.20;;;;;;;7.06;87.67;97992.19;4991235;28;20042;-44
2023/03/23 03:21:34;;;;;;;12.55;3.65;;;;;;;7.09;87.73;97983.16;5008467;28;20057;-44
2023/03/23 03:24:02;;;;;;;9.25;2.50;;;;;;;7.09;88.00;97983.16;5008969;28;20045;-46
2023/03/23 03:26:31;;;;;;;4.85;2.10;;;;;;;7.11;88.14;97983.53;5004469;28;20125;-44
2023/03/23 03:28:57;;;;;;;11.98;2.30;;;;;;;7.12;87.84;97985.13;4991264;28;20042;-44
2023/03/23 03:31:27;;;;;;;9.10;2.47;;;;;;;7.14;88.34;97975.31;5008444;28;20045;-44
2023/03/23 03:33:53;;;;;;;15.43;2.15;;;;;;;7.16;88.16;97980.41;5008804;28;20085;-43
2023/03/23 03:36:26;;;;;;;12.98;1.83;;;;;;;7.16;88.32;97961.94;5008572;28;20030;-44
2023/03/23 03:38:51;;;;;;;10.73;1.75;;;;;;;7.17;88.42;97963.53;5008371;28;20049;-47
2023/03/23 03:41:18;;;;;;;5.93;1.30;;;;;;;7.17;88.44;97959.97;5006696;28;20091;-44
2023/03/23 03:43:43;;;;;;;8.55;1.40;;;;;;;7.17;88.61;97951.72;5004519;28;20077;-48
2023/03/23 03:46:09;;;;;;;6.10;1.33;;;;;;;7.19;88.79;97941.13;4998068;28;20145;-44
2023/03/23 03:48:35;;;;;;;9.98;2.38;;;;;;;7.17;88.64;97936.00;5006227;28;20042;-44
2023/03/23 03:51:01;;;;;;;5.93;1.30;;;;;;;7.18;88.66;97926.56;5006992;28;20046;-44
2023/03/23 03:53:27;;;;;;;3.72;0.90;;;;;;;7.18;88.60;97914.75;5006815;28;20041;-44
2023/03/23 03:55:56;;;;;;;4.18;1.70;;;;;;;7.16;88.58;97917.13;5007940;28;20108;-44
2023/03/23 03:58:22;;;;;;;8.07;1.17;;;;;;;7.11;88.79;97904.56;5001825;28;20055;-47
2023/03/23 04:00:49;;;;;;;5.05;1.10;;;;;;;7.05;88.78;97897.84;5003886;28;20061;-44
2023/03/23 04:03:16;;;;;;;3.88;1.08;;;;;;;7.00;88.90;97886.44;5008464;28;20148;-44
2023/03/23 04:05:44;;;;;;;4.68;1.55;;;;;;;6.97;88.77;97889.97;5010228;28;20107;-44
2023/03/23 04:08:11;;;;;;;7.90;2.53;;;;;;;6.93;88.82;97884.50;4993056;28;20046;-47
2023/03/23 04:13:59;;;;;;;6.78;2.08;;;;;;;6.84;89.12;97888.78;5003650;28;20438;-44
2023/03/23 04:16:26;;;;;;;5.60;1.40;;;;;;;6.80;89.06;97899.00;5009108;28;20287;-47
2023/03/23 04:18:51;;;;;;;11.18;1.42;;;;;;;6.77;89.05;97894.28;4992432;28;20084;-43
2023/03/23 04:21:17;;;;;;;9.80;1.48;;;;;;;6.77;89.39;97897.03;5003007;28;20403;-48
2023/03/23 04:23:43;;;;;;;7.38;0.98;;;;;;;6.74;89.33;97893.88;5009146;28;20060;-45
2023/03/23 04:26:12;;;;;;;4.85;1.33;;;;;;;6.73;89.52;97895.03;4990487;28;20125;-43
2023/03/23 04:28:40;;;;;;;6.97;1.23;;;;;;;6.71;89.47;97902.09;4992201;28;20511;-43
2023/03/23 04:31:06;;;;;;;13.48;1.55;;;;;;;6.70;89.44;97906.81;5005150;28;20041;-43
2023/03/23 04:33:32;;;;;;;5.15;1.60;;;;;;;6.69;89.43;97904.47;5010048;28;20072;-43
2023/03/23 04:36:00;;;;;;;4.47;1.02;;;;;;;6.67;89.41;97899.34;5001151;28;20045;-44
2023/03/23 04:38:27;;;;;;;5.38;1.10;;;;;;;6.68;89.35;97905.63;5017946;28;20089;-43
2023/03/23 04:40:53;;;;;;;7.80;1.17;;;;;;;6.67;89.58;97902.09;5003596;28;20049;-43
2023/03/23 04:43:24;;;;;;;4.03;0.75;;;;;;;6.65;89.46;97893.44;5008591;28;20049;-43
2023/03/23 04:45:57;;;;;;;6.30;1.88;;;;;;;6.65;89.58;97898.16;4992959;28;20046;-43
2023/03/23 04:48:24;;;;;;;6.85;1.10;;;;;;;6.64;89.66;97902.88;5003219;28;20045;-44
2023/03/23 04:50:50;;;;;;;10.20;2.38;;;;;;;6.65;89.81;97909.94;5009477;28;20057;-43
2023/03/23 04:53:17;;;;;;;10.43;1.35;;;;;;;6.66;89.80;97905.22;5008807;28;20042;-47
2023/03/23 04:55:43;;;;;;;7.95;1.15;;;;;;;6.68;89.85;97900.13;5009616;28;20100;-43
2023/03/23 04:58:10;;;;;;;11.00;3.00;;;;;;;6.69;89.84;97899.75;5009755;28;20049;-43
2023/03/23 05:00:36;;;;;;;10.35;1.38;;;;;;;6.71;89.75;97904.84;5009365;28;20049;-42
2023/03/23 05:03:02;;;;;;;9.57;1.98;;;;;;;6.72;89.67;97903.69;5009632;28;20050;-47
2023/03/23 05:05:30;;;;;;;8.23;1.20;;;;;;;6.76;90.11;97898.97;5010332;28;20044;-43
2023/03/23 05:07:56;;;;;;;6.38;1.40;;;;;;;6.77;89.99;97894.28;5010368;28;20046;-43
2023/03/23 05:10:22;;;;;;;5.75;1.67;;;;;;;6.77;89.95;97895.06;5010163;28;20398;-43
2023/03/23 05:12:49;;;;;;;11.98;2.17;;;;;;;6.79;89.95;97902.91;4993516;28;20447;-43
2023/03/23 05:15:16;;;;;;;8.10;1.88;;;;;;;6.76;89.97;97904.47;4992901;28;20053;-43
2023/03/23 05:17:45;;;;;;;10.93;1.80;;;;;;;6.78;90.06;97895.84;4997306;28;20050;-43
2023/03/23 05:20:14;;;;;;;7.63;1.45;;;;;;;6.75;89.97;97898.19;5010122;28;20050;-46
2023/03/23 05:22:41;;;;;;;6.32;1.73;;;;;;;6.74;90.03;97902.13;5007193;28;20093;-43
2023/03/23 05:25:08;;;;;;;6.90;1.58;;;;;;;6.75;90.13;97900.16;5010463;28;20045;-46
2023/03/23 05:27:35;;;;;;;4.68;0.75;;;;;;;6.75;90.12;97905.66;5009992;28;20046;-43
2023/03/23 05:30:01;;;;;;;5.13;1.35;;;;;;;6.72;90.06;97907.19;5009515;28;20134;-43
2023/03/23 05:32:30;;;;;;;2.67;1.00;;;;;;;6.71;90.20;97899.34;5006730;28;20069;-45
2023/03/23 05:35:00;;;;;;;4.78;1.55;;;;;;;6.70;90.29;97900.53;5009671;28;20130;-43
2023/03/23 05:37:36;;;;;;;2.42;0.90;;;;;;;6.69;90.37;97905.25;4990345;28;20034;-43
2023/03/23 05:40:05;;;;;;;8.50;1.00;;;;;;;6.69;90.49;97898.97;5002946;28;20157;-43
2023/03/23 05:42:35;;;;;;;5.07;0.85;;;;;;;6.69;90.50;97904.47;4995874;28;20046;-45
2023/03/23 05:45:05;;;;;;;3.17;1.08;;;;;;;6.69;90.18;97904.47;5002882;28;20392;-45
2023/03/23 05:47:32;;;;;;;5.05;0.93;;;;;;;6.68;90.31;97909.16;5008388;28;20172;-43
2023/03/23 05:49:57;;;;;;;6.10;1.00;;;;;;;6.67;90.33;97907.59;5006704;28;20101;-43
2023/03/23 05:52:26;;;;;;;2.35;0.88;;;;;;;6.66;90.69;97911.53;5005957;28;20045;-49
2023/03/23 05:54:52;;;;;;;6.75;1.75;;;;;;;6.67;90.81;97926.06;5005118;28;20061;-50
2023/03/23 05:57:21;;;;;;;2.72;0.80;;;;;;;6.67;90.67;97915.84;5007767;28;20129;-44
2023/03/23 05:59:47;;;;;;;5.65;1.00;;;;;;;6.68;90.78;97917.41;5004982;28;20051;-43
2023/03/23 06:02:14;;;;;;;3.78;1.15;;;;;;;6.68;91.00;97914.66;4987792;28;20128;-43
2023/03/23 06:04:40;;;;;;;5.43;1.05;;;;;;;6.67;90.89;97913.09;5009768;28;20042;-43
2023/03/23 06:07:07;;;;;;;8.40;1.33;;;;;;;6.68;90.85;97908.38;5008023;28;20033;-43
2023/03/23 06:09:33;;;;;;;4.25;1.00;;;;;;;6.67;90.96;97917.81;5009132;28;20033;-43
2023/03/23 06:11:58;;;;;;;5.40;1.20;;;;;;;6.68;91.20;97914.66;4991567;28;20050;-43
2023/03/23 06:14:24;;;;;;;6.28;1.40;;;;;;;6.70;91.22;97914.25;5009191;28;20053;-43
2023/03/23 06:16:50;;;;;;;4.70;1.45;;;;;;;6.71;91.06;97907.59;5009575;28;20400;-43
2023/03/23 06:19:16;;;;;;;2.78;0.88;;;;;;;6.71;91.19;97908.41;5009063;28;20099;-43
2023/03/23 06:21:42;;;;;;;3.05;1.25;;;;;;;6.73;91.13;97908.00;5009488;28;20136;-45
2023/03/23 06:24:08;;;;;;;7.40;0.82;;;;;;;6.74;91.35;97912.34;5008931;28;20049;-43
2023/03/23 06:26:37;;;;;;;3.80;1.05;;;;;;;6.75;91.38;97900.94;5009531;28;20049;-44
2023/03/23 06:29:10;;;;;;;7.72;1.33;;;;;;;6.76;91.24;97896.22;5008596;28;20042;-44
2023/03/23 06:31:54;;;;;;;9.70;1.73;;;;;;;6.77;91.10;97900.56;4988016;28;20494;-45
2023/03/23 06:34:20;;;;;;;5.25;1.73;;;;;;;6.78;91.23;97902.13;5008897;28;20038;-43
2023/03/23 06:36:46;;;;;;;6.10;1.15;;;;;;;6.79;91.11;97913.91;5007536;28;20048;-43
2023/03/23 06:39:13;;;;;;;9.57;1.80;;;;;;;6.80;91.21;97915.50;5003064;28;20108;-43
2023/03/23 06:41:39;;;;;;;7.93;1.02;;;;;;;6.82;91.15;97918.63;4983987;28;20056;-47
2023/03/23 06:44:06;;;;;;;4.75;1.20;;;;;;;6.83;91.08;97909.22;4984951;28;20050;-43
2023/03/23 06:46:32;;;;;;;9.75;1.50;;;;;;;6.83;90.93;97922.97;4999774;28;20046;-43
2023/03/23 06:48:58;;;;;;;4.10;1.08;;;;;;;6.83;91.03;97922.97;5000823;28;20411;-43
2023/03/23 06:51:24;;;;;;;6.70;1.20;;;;;;;6.83;91.34;97912.72;5006278;28;20759;-43
2023/03/23 06:53:50;;;;;;;12.48;1.48;;;;;;;6.85;91.45;97926.09;5011325;28;20431;-43
2023/03/23 06:56:16;;;;;;;6.03;1.67;;;;;;;6.85;91.32;97924.16;5012666;28;20129;-43
2023/03/23 06:58:42;;;;;;;6.97;1.63;;;;;;;6.89;91.08;97935.13;4991254;28;20136;-43
2023/03/23 07:01:09;;;;;;;5.40;1.27;;;;;;;6.88;91.04;97939.09;5008023;28;20072;-43
2023/03/23 07:03:35;;;;;;;11.02;2.00;;;;;;;6.89;91.12;97935.94;5008735;28;20046;-43
2023/03/23 07:06:01;;;;;;;5.90;1.30;;;;;;;6.90;91.43;97940.28;5008707;28;20077;-43
2023/03/23 07:08:27;;;;;;;13.55;2.47;;;;;;;6.92;91.14;97945.38;5005355;28;20130;-43
2023/03/23 07:10:54;;;;;;;6.82;1.42;;;;;;;6.93;91.13;97946.94;5008657;28;20467;-43
2023/03/23 07:13:21;;;;;;;8.02;1.27;;;;;;;6.95;91.19;97944.59;4995639;28;20049;-46
2023/03/23 07:15:48;;;;;;;6.47;1.10;;;;;;;6.99;91.04;97945.41;5008495;28;20137;-45
2023/03/23 07:18:14;;;;;;;5.55;2.05;;;;;;;7.02;91.07;97937.16;4996237;28;20399;-48
2023/03/23 07:20:40;;;;;;;5.57;1.42;;;;;;;7.05;91.16;97946.56;5008497;28;20495;-43
2023/03/23 07:23:06;;;;;;;12.25;3.05;;;;;;;7.06;91.12;97937.97;4991156;28;20078;-47
2023/03/23 07:25:33;;;;;;;12.10;2.20;;;;;;;7.06;91.07;97940.72;4990855;28;20579;-43
2023/03/23 07:28:02;;;;;;;10.00;1.80;;;;;;;7.10;91.26;97954.44;5009304;28;20056;-43
2023/03/23 07:30:29;;;;;;;8.27;1.38;;;;;;;7.13;91.10;97954.47;4983458;28;20107;-43
2023/03/23 07:32:56;;;;;;;7.88;1.67;;;;;;;7.17;91.27;97957.22;4995208;28;20583;-43
2023/03/23 07:35:22;;;;;;;12.65;2.00;;;;;;;7.22;91.56;97954.09;4985374;28;20030;-43
2023/03/23 07:37:48;;;;;;;6.60;1.60;;;;;;;7.29;91.31;97943.09;4991390;28;20483;-49
2023/03/23 07:40:15;;;;;;;9.07;2.05;;;;;;;7.35;91.29;97949.78;4994223;28;20084;-45
2023/03/23 07:42:49;;;;;;;12.38;2.30;;;;;;;7.42;91.37;97958.03;5011284;28;20136;-43
2023/03/23 07:45:15;;;;;;;8.48;2.10;;;;;;;7.48;91.48;97950.97;5012340;28;20081;-44
2023/03/23 07:47:42;;;;;;;13.35;2.25;;;;;;;7.55;91.28;97947.44;4994426;28;20049;-45
2023/03/23 07:50:08;;;;;;;13.77;3.17;;;;;;;7.61;91.34;97943.91;5012044;28;20519;-43
2023/03/23 07:52:35;;;;;;;20.20;2.15;;;;;;;7.68;91.25;97971.44;5012171;28;20128;-43
2023/03/23 07:55:03;;;;;;;13.55;1.90;;;;;;;7.75;91.03;97959.63;5011640;28;20527;-43
2023/03/23 07:57:30;;;;;;;13.52;1.92;;;;;;;7.80;91.09;97960.03;5011909;28;20498;-44
2023/03/23 07:59:56;;;;;;;13.77;3.35;;;;;;;7.86;90.96;97952.91;5011801;28;20038;-43
2023/03/23 08:02:23;;;;;;;9.68;2.00;;;;;;;7.90;90.94;97959.22;5010273;28;20057;-43
2023/03/23 08:04:49;;;;;;;10.23;2.03;;;;;;;7.93;90.92;97949.38;5011510;28;20103;-43
2023/03/23 08:07:16;;;;;;;14.15;2.85;;;;;;;7.94;90.84;97964.75;5009808;28;20049;-44
2023/03/23 08:09:42;;;;;;;9.32;1.65;;;;;;;7.97;90.96;97961.97;5006273;28;20369;-50
2023/03/23 08:12:08;;;;;;;11.55;2.53;;;;;;;8.04;90.85;97952.13;5005910;28;20514;-43
2023/03/23 08:14:34;;;;;;;4.85;1.60;;;;;;;8.09;90.59;97965.50;5011211;28;20077;-44
2023/03/23 08:17:01;;;;;;;17.17;2.35;;;;;;;8.13;90.66;97958.78;5010842;28;20048;-44
2023/03/23 08:19:27;;;;;;;18.35;2.05;;;;;;;8.21;90.58;97976.09;5008710;28;20042;-44
2023/03/23 08:21:53;;;;;;;12.55;1.98;;;;;;;8.29;90.49;97969.41;4986954;28;20050;-44
2023/03/23 08:24:19;;;;;;;11.75;2.42;;;;;;;8.33;90.26;97961.94;4986099;28;20033;-49
2023/03/23 08:26:45;;;;;;;6.40;1.73;;;;;;;8.38;90.15;97967.03;5004182;28;20439;-46
2023/03/23 08:29:10;;;;;;;9.35;1.48;;;;;;;8.42;90.08;97960.34;5006578;28;20092;-45
2023/03/23 08:31:38;;;;;;;18.08;1.98;;;;;;;8.46;90.03;97971.34;5008683;28;20045;-45
2023/03/23 08:34:04;;;;;;;17.25;2.42;;;;;;;8.50;90.03;97953.59;5006513;28;20042;-43
2023/03/23 08:36:33;;;;;;;7.15;1.42;;;;;;;8.54;89.89;97957.16;4995279;28;20041;-44
2023/03/23 08:38:59;;;;;;;8.38;1.83;;;;;;;8.59;89.70;97953.19;4989715;28;20038;-44
2023/03/23 08:41:25;;;;;;;14.05;2.50;;;;;;;8.64;89.59;97960.25;5009245;28;20132;-43
2023/03/23 08:43:52;;;;;;;9.70;1.98;;;;;;;8.70;89.48;97959.47;5006020;28;20137;-43
2023/03/23 08:46:19;;;;;;;8.02;1.25;;;;;;;8.75;89.47;97956.28;4972685;28;20456;-44
2023/03/23 08:48:46;;;;;;;7.88;1.73;;;;;;;8.81;89.44;97954.69;5000611;28;20038;-45
2023/03/23 08:51:12;;;;;;;7.47;1.42;;;;;;;8.87;89.57;97947.53;5008047;28;20069;-43
2023/03/23 08:53:38;;;;;;;8.18;2.40;;;;;;;8.95;89.92;97951.84;4989068;28;20038;-44
2023/03/23 08:56:09;;;;;;;17.10;2.65;;;;;;;9.07;90.00;97964.41;4991607;28;20052;-44
2023/03/23 08:58:38;;;;;;;12.40;2.42;;;;;;;9.18;90.47;97952.13;5005375;28;20044;-45
2023/03/23 09:01:06;;;;;;;12.70;2.28;;;;;;;9.34;90.94;97957.16;5007230;28;20495;-46
2023/03/23 09:03:33;;;;;;;7.35;2.28;;;;;;;9.50;91.61;97967.69;5001721;28;20034;-44
2023/03/23 09:06:04;;;;;;;8.68;2.47;;;;;;;9.69;92.20;97964.38;5009946;28;20492;-47
2023/03/23 09:08:31;;;;;;;12.70;2.35;;;;;;;9.90;93.79;97983.53;4981273;28;20442;-46
2023/03/23 09:11:02;;;;;;;7.72;1.83;;;;;;;10.15;95.11;97981.41;5014968;28;20045;-45
2023/03/23 09:13:29;;;;;;;3.85;1.63;;;;;;;10.45;96.14;97972.41;5000924;28;20050;-54
2023/03/23 09:15:55;;;;;;;5.95;1.60;;;;;;;10.85;97.49;97968.78;4990016;28;20470;-47
2023/03/23 09:18:21;;;;;;;9.63;2.15;;;;;;;11.47;97.90;97979.41;4963237;28;20046;-45
2023/03/23 09:20:49;;;;;;;4.20;1.27;;;;;;;12.33;97.33;97971.31;4989735;28;20060;-46
2023/03/23 09:23:15;;;;;;;11.45;2.95;;;;;;;13.25;93.73;97989.72;5009590;28;20053;-52
2023/03/23 09:25:40;;;;;;;6.38;2.25;;;;;;;14.26;90.32;97990.53;5002118;28;20058;-46
2023/03/23 09:28:06;;;;;;;9.55;1.80;;;;;;;15.03;85.06;98003.59;4988300;28;20124;-52
2023/03/23 09:30:33;;;;;;;9.07;2.10;;;;;;;15.61;81.30;97990.34;4989435;28;20042;-45
2023/03/23 09:33:01;;;;;;;12.60;2.00;;;;;;;16.04;77.68;97998.94;5009556;28;20080;-47
2023/03/23 09:35:27;;;;;;;11.45;1.90;;;;;;;16.56;75.23;98009.56;4991802;28;20647;-50
2023/03/23 09:37:53;;;;;;;7.07;1.90;;;;;;;16.95;73.00;98003.38;5008297;28;20037;-45
2023/03/23 09:40:25;;;;;;;14.43;2.35;;;;;;;16.73;71.53;97996.22;5008258;28;20049;-45
2023/03/23 09:43:17;;;;;;;8.20;1.52;;;;;;;15.68;71.21;98001.28;4989073;28;20112;-51
2023/03/23 09:46:00;;;;;;;8.93;2.58;;;;;;;15.01;70.49;97997.69;5007007;28;20060;-49
2023/03/23 09:48:58;;;;;;;13.02;4.03;;;;;;;14.98;70.94;98004.91;5007342;28;20046;-45
2023/03/23 09:51:48;;;;;;;9.60;2.53;;;;;;;15.57;68.90;98001.59;5007103;28;20049;-45
2023/03/23 09:54:46;;;;;;;7.78;1.83;;;;;;;15.90;67.56;98006.97;4992267;28;20049;-50
2023/03/23 09:57:18;;;;;;;8.98;2.50;;;;;;;16.13;65.22;98010.19;4955377;28;20054;-45
2023/03/23 10:00:01;;;;;;;7.47;2.63;;;;;;;15.33;65.32;97980.78;5009500;28;20042;-46
2023/03/23 10:02:41;;;;;;;8.68;2.40;;;;;;;14.36;66.12;97992.28;4991415;28;20399;-45
2023/03/23 10:05:34;;;;;;;8.10;2.58;;;;;;;13.58;67.20;97993.34;5007400;28;20052;-45
2023/03/23 10:08:02;;;;;;;5.80;2.00;;;;;;;13.29;67.25;97986.88;4999326;28;20140;-53
2023/03/23 10:10:45;;;;;;;11.32;2.10;;;;;;;13.33;67.73;97979.22;5006154;28;20046;-46
2023/03/23 10:13:46;;;;;;;11.18;1.80;;;;;;;13.59;66.84;97977.44;5006600;28;20041;-45
2023/03/23 10:16:21;;;;;;;8.27;1.70;;;;;;;13.54;65.92;97992.66;4964031;28;22412;-45
2023/03/23 10:19:04;;;;;;;6.40;1.60;;;;;;;13.23;66.29;97983.03;5007129;28;20049;-45
2023/03/23 10:21:33;;;;;;;9.30;1.77;;;;;;;12.61;66.46;97987.41;4999626;28;20103;-44
2023/03/23 10:24:07;;;;;;;7.72;1.38;;;;;;;12.05;67.19;97972.56;5005140;28;20054;-45
2023/03/23 10:26:47;;;;;;;7.45;2.72;;;;;;;11.68;67.97;97991.34;5003220;28;20421;-49
2023/03/23 10:29:28;;;;;;;4.47;1.40;;;;;;;11.55;68.71;97996.69;5006703;28;20057;-45
2023/03/23 10:32:01;;;;;;;10.65;1.58;;;;;;;11.81;68.67;98003.50;4999098;28;20395;-44
2023/03/23 10:34:31;;;;;;;12.50;2.45;;;;;;;12.59;67.71;97995.38;4989523;28;20046;-48
2023/03/23 10:37:04;;;;;;;5.97;1.42;;;;;;;13.50;65.20;98003.06;5006369;28;20541;-47
2023/03/23 10:39:44;;;;;;;8.40;1.98;;;;;;;13.67;64.49;98004.66;5008114;28;20057;-45
2023/03/23 10:42:10;;;;;;;7.15;1.40;;;;;;;13.65;64.64;98007.09;5005942;28;20053;-45
2023/03/23 10:44:41;;;;;;;12.60;1.83;;;;;;;13.55;64.78;97994.22;5003529;28;20077;-45
2023/03/23 10:47:08;;;;;;;8.38;1.67;;;;;;;13.59;64.69;98005.25;5007072;28;20056;-44
2023/03/23 10:49:48;;;;;;;12.40;1.80;;;;;;;13.48;64.85;97994.38;5006038;28;20089;-45
2023/03/23 10:52:35;;;;;;;8.18;1.70;;;;;;;14.12;63.99;98004.00;5004379;28;20132;-49
2023/03/23 10:55:14;;;;;;;6.28;1.50;;;;;;;15.30;61.87;97992.84;5002786;28;20049;-45
2023/03/23 10:57:45;;;;;;;7.45;1.55;;;;;;;15.81;60.70;98005.63;5004629;28;20573;-46
2023/03/23 11:00:16;;;;;;;10.77;1.90;;;;;;;15.28;61.02;97992.50;4989683;28;20399;-47
2023/03/23 11:03:00;;;;;;;10.82;1.63;;;;;;;14.75;62.23;97985.66;4989559;28;20152;-45
2023/03/23 11:05:34;;;;;;;7.15;1.50;;;;;;;14.02;63.76;97995.50;4999099;28;20492;-44
2023/03/23 11:08:01;;;;;;;10.38;2.20;;;;;;;13.46;64.57;97985.69;5000341;28;20088;-45
2023/03/23 11:10:41;;;;;;;8.57;2.42;;;;;;;13.39;65.36;98003.31;5018390;28;20496;-45
2023/03/23 11:13:15;;;;;;;9.43;1.63;;;;;;;13.14;65.43;97997.50;5010887;28;20112;-45
2023/03/23 11:15:42;;;;;;;6.68;1.60;;;;;;;12.97;65.57;97989.50;5008210;28;20045;-45
2023/03/23 11:18:18;;;;;;;7.15;1.30;;;;;;;12.74;66.19;97980.03;5009212;28;20046;-45
2023/03/23 11:20:48;;;;;;;9.40;1.70;;;;;;;12.97;66.14;97976.41;5010793;28;20050;-45
2023/03/23 11:23:31;;;;;;;4.03;2.38;;;;;;;13.15;65.88;97987.97;5011629;28;20451;-45
2023/03/23 11:26:10;;;;;;;7.28;1.23;;;;;;;13.24;65.75;97976.25;4993766;28;20050;-45
2023/03/23 11:28:45;;;;;;;7.95;1.08;;;;;;;13.10;65.96;97982.91;5010411;28;20500;-44
2023/03/23 11:31:11;;;;;;;4.97;0.98;;;;;;;12.85;66.09;97977.03;4989729;28;20495;-45
2023/03/23 11:34:00;;;;;;;8.02;1.65;;;;;;;12.60;66.53;97979.53;5010501;28;20073;-44
2023/03/23 11:36:38;;;;;;;8.50;2.40;;;;;;;12.42;66.98;97979.84;5011344;28;20368;-45
2023/03/23 11:39:29;;;;;;;11.00;1.67;;;;;;;12.32;67.35;97975.28;5008456;28;20053;-44
2023/03/23 11:41:58;;;;;;;7.18;1.40;;;;;;;12.37;67.52;97972.00;5008987;28;20113;-45
2023/03/23 11:44:33;;;;;;;10.18;1.63;;;;;;;12.42;67.63;97963.19;5011352;28;20037;-45
2023/03/23 11:47:16;;;;;;;6.82;1.30;;;;;;;12.54;67.43;97953.47;5010258;28;20088;-45
2023/03/23 11:49:47;;;;;;;;;;;;;;;12.44;67.33;97955.25;5010634;28;20108;-44
2023/03/23 11:52:40;;;;;;;5.70;1.30;;;;;;;12.30;67.65;97976.91;5009404;28;20383;-44